NCAR-RAP Real-Time Weather Data

Output produced by METARs form (23 February 2020  02:33 UTC)
found at http://weather.rap.ucar.edu/surface/
 
KACY 230154Z 20004KT 10SM CLR 03/M09 A3026 RMK AO2 SLP247 T00281089 $
KACY 230054Z AUTO 21005KT 10SM CLR 03/M10 A3025 RMK AO2 SLP245 T00331100 TSNO $
KACY 222354Z 22005KT 10SM CLR 06/M12 A3024 RMK AO2 SLP241 T00561117 10106 20056 53004
KACY 222254Z 25006KT 10SM CLR 08/M12 A3023 RMK AO2 SLP237 T00781122
KACY 222154Z 26010G18KT 10SM CLR 09/M12 A3023 RMK AO2 SLP236 T00891122
KACY 222054Z 24011KT 10SM CLR 09/M14 A3023 RMK AO2 SLP237 T00941139 56017
KACY 221954Z 26012G20KT 10SM CLR 10/M14 A3024 RMK AO2 SLP239 T01001139
KACY 221854Z 27011KT 10SM CLR 10/M14 A3025 RMK AO2 SLP243 T01001139
KACY 221754Z 25013G20KT 10SM CLR 09/M15 A3028 RMK AO2 SLP253 T00891150 10094 21028 58029
KACY 221654Z 27010KT 10SM CLR 08/M15 A3032 RMK AO2 SLP268 T00831150
KACY 221554Z 27009G20KT 10SM CLR 07/M14 A3034 RMK AO2 SLP274 T00671139
KACY 221454Z 27011KT 10SM CLR 05/M12 A3036 RMK AO2 SLP282 T00501122 58001
KACY 221354Z 25006KT 10SM CLR 02/M09 A3038 RMK AO2 SLP288 T00221089
KACY 221254Z 26007KT 10SM CLR M01/M08 A3037 RMK AO2 SLP284 T10111083
KACY 221154Z 25005KT 10SM CLR M03/M08 A3037 RMK AO2 SLP283 T10281083 11022 21039 53008
KACY 221054Z 23006KT 10SM CLR M03/M08 A3035 RMK AO2 SLP277 T10281083
KACY 220954Z 24005KT 10SM CLR M03/M09 A3034 RMK AO2 SLP276 T10331094
KACY 220854Z 23005KT 10SM CLR M03/M10 A3034 RMK AO2 SLP275 T10281100 57014
KACY 220754Z 22003KT 10SM CLR M04/M11 A3035 RMK AO2 SLP279 T10391111
KACY 220654Z 23003KT 10SM CLR M03/M12 A3037 RMK AO2 SLP286 T10331122
KACY 220554Z 23003KT 10SM CLR M02/M13 A3038 RMK AO2 SLP289 T10221128 11006 21050 56018
KACY 220454Z 24005KT 10SM CLR M02/M13 A3040 RMK AO2 SLP294 T10221133 400331061
KACY 220354Z 26006KT 10SM CLR M02/M13 A3041 RMK AO2 SLP300 T10171133
KACY 220254Z 00000KT 10SM CLR M04/M11 A3044 RMK AO2 SLP307 T10441111 57005
KACY 220154Z 25003KT 10SM CLR M02/M11 A3044 RMK AO2 SLP309 T10171106
KACY 220054Z 21005KT 10SM CLR M02/M10 A3044 RMK AO2 SLP310 T10171100
KACY 212354Z 19003KT 10SM CLR M01/M11 A3045 RMK AO2 SLP312 T10061106 10033 21006 51002
KACY 212254Z 00000KT 10SM CLR 01/M16 A3045 RMK AO2 SLP312 T00111161
KACY 212154Z 32004KT 10SM CLR 02/M16 A3045 RMK AO2 SLP311 T00221156
KACY 212054Z 32006KT 10SM CLR 03/M17 A3045 RMK AO2 SLP310 T00281172 56013
KACY 211954Z VRB04KT 10SM CLR 03/M17 A3045 RMK AO2 SLP313 T00281167
KACY 211854Z 36009G19KT 10SM CLR 02/M16 A3046 RMK AO2 SLP316 T00221161
KACY 211754Z 10SM CLR 02/M14 A3048 RMK AO2 SLP323 T00171144 10017 21061 58008
KACY 211654Z 03006G17KT 10SM CLR 00/M14 A3051 RMK AO2 SLP332 T00001139
KACY 211554Z 01010KT 10SM CLR 00/M14 A3052 RMK AO2 SLP334 T00001139
KACY 211454Z 34013G18KT 10SM CLR M02/M14 A3051 RMK AO2 SLP331 T10171139 51014
KACY 211354Z 35013KT 10SM CLR M03/M14 A3051 RMK AO2 SLP331 T10331139
KACY 211254Z 35014KT 10SM CLR M04/M13 A3049 RMK AO2 SLP326 T10441133
KACY 211154Z 34010KT 10SM CLR M06/M14 A3047 RMK AO2 SLP317 T10611139 11011 21061 52014
KACY 211054Z 35007KT 10SM CLR M06/M15 A3045 RMK AO2 SLP313 T10561150
KACY 210954Z 35006KT 10SM CLR M06/M14 A3044 RMK AO2 SLP307 T10561144
KACY 210854Z 36010G19KT 10SM CLR M04/M14 A3042 RMK AO2 SLP303 T10441144 51003
KACY 210754Z 35013G22KT 10SM CLR M03/M14 A3042 RMK AO2 PK WND 35026/0718 SLP302 T10331139
KACY 210654Z 01012G22KT 10SM CLR M02/M13 A3042 RMK AO2 SLP302 T10171128
KACY 210554Z 01009KT 10SM CLR M01/M12 A3042 RMK AO2 SLP300 T10111122 10017 21011 55002
KACY 210454Z 36011KT 10SM CLR M01/M12 A3040 RMK AO2 SLP296 T10061122 400331039
KACY 210354Z 36007KT 10SM CLR M01/M11 A3042 RMK AO2 SLP301 T10061106
KACY 210254Z 36006KT 10SM CLR 00/M11 A3042 RMK AO2 SLP302 T00001106 53006